Latest Weather Observations for Emerald

IDQ60801

Issued at 10:02 am EST Tuesday 7 December 2021 (issued every 10 minutes, with the page automatically refreshed every 10 minutes)

About weather observations | Map of weather stations | Latest weather observations for QLD | Other Formats
Station Details ID: 035264 Name: EMERALD AIRPORT Lat: -23.57 Lon: 148.18 Height: 189.4 m
Data from the previous 72 hours. | See also: Recent months at Emerald
Date/Time
EST
Temp
°C
App
Temp
°C
Dew
Point
°C
Rel
Hum
%
Delta-T
°C
Wind Press
QNH
hPa
Press
MSL
hPa
Rain since
9am
mm
Dir  Spd
km/h
Gust
km/h
Spd
kts
Gust
kts
07/10:00am 27.5 28.9 20.3 65 4.8 NE 13 20 7 11 1013.6 1012.4 0.0
07/09:30am 27.0 29.0 21.5 72 3.7 NNE 13 19 7 10 1014.0 1012.8 0.0
07/09:00am 26.6 27.8 20.7 70 3.9 NE 15 20 8 11 1014.4 1013.1 0.2
07/08:30am 25.4 25.7 20.4 74 3.3 NNE 19 24 10 13 1014.2 1012.9 0.2
07/08:00am 25.1 25.6 20.1 74 3.3 N 17 20 9 11 1013.9 1012.7 0.2
07/07:30am 24.2 26.5 19.9 77 2.8 NE 7 17 4 9 1014.2 1012.9 0.2
07/07:00am 23.4 25.9 19.8 80 2.3 NE 6 9 3 5 1014.2 1012.9 0.2
07/06:30am 22.3 24.0 19.3 83 1.9 ENE 9 13 5 7 1013.8 1012.6 0.2
07/06:00am 21.2 24.6 19.3 89 1.2 CALM 0 0 0 0 1013.8 1012.6 0.2
07/05:30am 20.3 23.6 19.0 92 0.8 CALM 0 0 0 0 1013.6 1012.4 0.2
07/05:00am 20.3 23.5 18.8 91 0.9 CALM 0 0 0 0 1013.3 1012.1 0.2
07/04:30am 20.5 23.6 18.6 89 1.2 CALM 0 0 0 0 1013.3 1012.1 0.2
07/04:00am 20.4 23.0 18.5 89 1.2 ESE 2 7 1 4 1013.1 1011.9 0.2
07/03:30am 20.7 22.0 18.5 87 1.4 SSE 9 15 5 8 1012.8 1011.6 0.2
07/03:00am 21.2 20.6 18.4 84 1.8 SSE 19 24 10 13 1012.7 1011.5 0.2
07/02:30am 21.2 20.4 18.4 84 1.8 SE 20 26 11 14 1012.9 1011.7 0.2
07/02:00am 21.0 20.2 18.4 85 1.6 SSE 20 28 11 15 1013.1 1011.9 0.2
07/01:30am 21.3 21.2 18.7 85 1.6 SE 17 24 9 13 1013.5 1012.3 0.2
07/01:00am 21.8 20.8 18.8 83 1.9 SE 22 30 12 16 1013.5 1012.3 0.2
07/12:30am 21.9 20.4 18.5 81 2.1 SE 24 33 13 18 1014.3 1013.0 0.2
07/12:00am 21.8 19.7 19.0 84 1.8 ESE 28 39 15 21 1013.6 1012.4 0.2
 
Date/Time
EST
Temp
°C
App
Temp
°C
Dew
Point
°C
Rel
Hum
%
Delta-T
°C
Wind Press
QNH
hPa
Press
MSL
hPa
Rain since
9am
mm
Dir  Spd
km/h
Gust
km/h
Spd
kts
Gust
kts
06/11:30pm 22.8 22.1 19.4 81 2.2 SE 22 30 12 16 1014.3 1013.0 0.2
06/11:00pm 23.0 20.9 19.0 78 2.6 SE 28 39 15 21 1013.8 1012.6 0.2
06/10:30pm 24.0 21.8 18.6 72 3.4 SE 28 41 15 22 1013.6 1012.4 0.2
06/10:00pm 24.3 22.7 19.1 73 3.3 SSE 26 37 14 20 1013.5 1012.3 0.2
06/09:52pm 24.6 22.5 19.0 71 3.6 SSE 28 43 15 23 1013.4 1012.2 0.2
06/09:30pm 25.4 26.8 21.1 77 2.9 ESE 15 15 8 8 1013.0 1011.8 0.2
06/09:00pm 25.7 28.0 20.7 74 3.3 E 9 11 5 6 1012.5 1011.3 0.2
06/08:30pm 25.9 27.5 20.7 73 3.4 E 13 17 7 9 1011.7 1010.5 0.2
06/08:00pm 26.1 27.7 20.7 72 3.6 E 13 15 7 8 1011.5 1010.2 0.2
06/07:30pm 26.5 28.2 21.0 72 3.7 SE 13 13 7 7 1011.4 1010.1 0.2
06/07:00pm 27.1 29.3 21.2 70 3.9 ESE 11 13 6 7 1011.3 1010.0 0.2
06/06:30pm 28.4 30.4 20.7 63 5.1 ESE 11 15 6 8 1011.1 1009.8 0.2
06/06:00pm 29.5 31.7 20.4 58 6.1 SE 9 11 5 6 1010.7 1009.4 0.2
06/05:30pm 30.0 30.7 18.8 51 7.3 E 13 19 7 10 1010.1 1008.8 0.2
06/05:00pm 30.5 31.5 19.5 51 7.3 E 13 17 7 9 1009.6 1008.3 0.2
06/04:30pm 30.4 31.5 18.8 50 7.6 ENE 11 20 6 11 1009.6 1008.3 0.2
06/04:00pm 30.2 31.6 18.6 49 7.5 E 9 17 5 9 1009.8 1008.5 0.2
06/03:30pm 30.5 31.8 19.2 51 7.4 E 11 17 6 9 1010.0 1008.7 0.2
06/03:00pm 30.4 31.4 17.8 46 8.1 E 9 13 5 7 1010.3 1009.0 0.2
06/02:30pm 30.3 31.1 19.0 50 7.4 E 13 17 7 9 1010.4 1009.1 0.2
06/02:00pm 30.3 31.1 19.0 50 7.4 E 13 22 7 12 1010.9 1009.6 0.2
06/01:30pm 30.6 31.7 19.6 51 7.3 E 13 19 7 10 1011.3 1010.0 0.2
06/01:00pm 30.3 31.8 20.5 55 6.5 ENE 13 20 7 11 1011.9 1010.7 0.2
06/12:30pm 29.8 31.2 20.4 57 6.3 E 13 20 7 11 1012.2 1011.0 0.2
06/12:00pm 29.3 31.7 21.5 63 5.3 E 11 20 6 11 1012.7 1011.5 0.2
06/11:30am 28.5 30.0 20.5 62 5.3 E 13 20 7 11 1013.0 1011.8 0.2
06/11:00am 28.1 29.8 20.9 65 4.8 NNE 13 22 7 12 1013.2 1012.0 0.2
06/10:30am 27.1 28.2 20.4 66 4.4 NE 15 20 8 11 1013.5 1012.3 0.2
06/10:00am 27.2 27.7 20.0 64 4.7 ENE 17 28 9 15 1013.7 1012.5 0.2
06/09:30am 27.1 27.2 20.4 66 4.4 ENE 20 28 11 15 1013.6 1012.4 0.2
06/09:00am 27.0 27.8 20.6 68 4.2 ENE 17 26 9 14 1013.6 1012.4 0.6
06/08:30am 25.8 26.1 20.8 74 3.3 NE 20 30 11 16 1013.7 1012.5 0.6
06/08:00am 25.2 25.6 20.7 76 3.0 ENE 19 26 10 14 1013.6 1012.4 0.6
06/07:30am 24.4 25.2 21.3 83 2.1 ENE 19 24 10 13 1013.5 1012.3 0.6
06/07:14am 24.3 24.9 21.4 84 1.9 E 20 28 11 15 1013.5 1012.3 0.6
06/07:00am 24.7 25.7 21.8 84 1.9 E 19 24 10 13 1013.3 1012.1 0.6
06/06:30am 23.3 25.7 21.6 90 1.1 ESE 11 15 6 8 1013.1 1011.9 0.6
06/06:00am 22.7 27.1 21.3 92 0.9 CALM 0 0 0 0 1012.9 1011.7 0.6
06/05:30am 22.5 24.9 21.5 94 0.7 E 11 11 6 6 1012.5 1011.3 0.6
06/05:00am 22.3 24.6 21.3 94 0.7 ESE 11 15 6 8 1012.0 1010.8 0.6
06/04:30am 22.0 24.3 21.3 96 0.5 ESE 11 15 6 8 1012.0 1010.8 0.6
06/04:00am 22.4 24.6 21.2 93 0.8 ENE 11 15 6 8 1011.8 1010.6 0.6
06/03:30am 22.1 24.8 21.3 95 0.5 NE 9 11 5 6 1011.4 1010.1 0.6
06/03:00am 21.8 23.5 21.0 95 0.5 E 13 17 7 9 1011.4 1010.1 0.6
06/02:30am 21.9 24.0 20.9 94 0.7 E 11 13 6 7 1011.2 1009.9 0.6
06/02:00am 21.9 23.4 20.5 92 0.9 E 13 15 7 8 1010.9 1009.6 0.6
06/01:30am 22.0 23.4 20.3 90 1.1 ENE 13 15 7 8 1011.4 1010.1 0.6
06/01:00am 22.5 23.1 20.2 87 1.5 E 17 24 9 13 1012.0 1010.8 0.6
06/12:30am 22.9 23.1 20.1 84 1.8 E 19 26 10 14 1012.2 1011.0 0.6
06/12:00am 23.2 23.8 19.4 79 2.4 E 15 20 8 11 1012.2 1011.0 0.6
 
Date/Time
EST
Temp
°C
App
Temp
°C
Dew
Point
°C
Rel
Hum
%
Delta-T
°C
Wind Press
QNH
hPa
Press
MSL
hPa
Rain since
9am
mm
Dir  Spd
km/h
Gust
km/h
Spd
kts
Gust
kts
05/11:30pm 23.5 23.5 19.0 76 2.9 NE 17 20 9 11 1011.7 1010.5 0.6
05/11:00pm 23.9 23.1 19.2 75 3.0 ENE 22 32 12 17 1011.6 1010.4 0.6
05/10:30pm 24.1 22.2 19.4 75 3.0 ENE 28 39 15 21 1011.9 1010.7 0.6
05/10:08pm 24.2 21.0 19.5 75 3.0 ENE 35 54 19 29 1011.9 1010.7 0.6
05/10:00pm 24.4 20.7 19.2 73 3.4 ENE 37 52 20 28 1011.9 1010.7 0.6
05/09:30pm 25.6 21.5 19.9 70 3.7 E 41 57 22 31 1011.4 1010.1 0.6
05/09:24pm 25.9 22.6 20.0 70 3.9 E 37 52 20 28 1011.2 1009.9 0.6
05/09:00pm 26.4 25.6 20.9 72 3.7 E 26 33 14 18 1010.7 1009.4 0.6
05/08:30pm 25.1 27.8 22.2 84 2.0 ESE 11 13 6 7 1010.2 1008.9 0.6
05/08:00pm 25.9 29.6 22.6 82 2.2 SE 7 9 4 5 1009.7 1008.4 0.6
05/07:30pm 25.8 28.8 21.9 79 2.6 ESE 9 13 5 7 1009.4 1008.1 0.6
05/07:00pm 26.4 28.0 21.4 74 3.3 SE 15 19 8 10 1009.2 1007.9 0.6
05/06:30pm 26.3 28.0 21.7 76 3.1 SSE 15 19 8 10 1009.0 1007.7 0.6
05/06:00pm 29.8 28.4 20.4 57 6.3 SE 28 39 15 21 1008.9 1007.6 0.0
05/05:40pm 30.9 30.4 18.6 48 8.0 SE 19 39 10 21 1008.5 1007.3 0.0
05/05:30pm 33.2 33.3 16.5 36 10.6 SE 11 13 6 7 1008.1 1006.9 0.0
05/05:00pm 32.9 33.8 16.7 38 10.4 SE 7 9 4 5 1007.9 1006.7 0.0
05/04:30pm 33.5 33.3 13.5 29 12.2 ENE 7 13 4 7 1007.6 1006.4 0.0
05/04:00pm 33.7 34.2 16.6 36 10.9 E 9 13 5 7 1007.8 1006.6 0.0
05/03:30pm 33.7 35.6 19.0 42 9.7 ENE 7 17 4 9 1008.2 1007.0 0.0
05/03:00pm 32.9 35.0 19.4 45 9.0 E 7 15 4 8 1008.4 1007.2 0.0
05/02:30pm 32.7 35.1 20.9 49 8.0 SE 9 15 5 8 1009.0 1007.7 0.0
05/02:00pm 32.5 34.8 20.7 49 8.0 ESE 9 13 5 7 1009.5 1008.2 0.0
05/01:30pm 32.0 35.5 21.8 54 7.0 ENE 6 15 3 8 1009.9 1008.6 0.0
05/01:00pm 31.4 35.2 22.4 59 6.2 NE 6 15 3 8 1010.3 1009.0 0.0
05/12:42pm 31.4 34.1 22.1 57 6.4 NNE 11 17 6 9 1010.5 1009.2 0.0
05/12:30pm 30.8 34.0 21.6 58 6.2 NNE 7 15 4 8 1010.6 1009.3 0.0
05/12:23pm 30.8 33.5 21.3 57 6.4 E 9 19 5 10 1010.8 1009.5 0.0
05/12:00pm 30.0 32.9 22.4 63 5.2 NE 11 19 6 10 1011.2 1009.9 0.0
05/11:30am 29.5 31.6 21.7 63 5.3 E 13 17 7 9 1011.6 1010.4 0.0
05/11:00am 29.4 31.6 21.9 64 5.1 E 13 20 7 11 1012.2 1011.0 0.0
05/10:30am 28.9 30.7 22.6 69 4.3 E 17 20 9 11 1012.5 1011.3 0.0
05/10:00am 28.6 29.6 22.1 68 4.4 ENE 20 28 11 15 1012.7 1011.5 0.0
05/09:30am 28.2 28.6 22.4 71 3.9 ENE 24 30 13 16 1012.9 1011.7 0.0
05/09:00am 27.8 29.5 22.3 72 3.7 ENE 17 22 9 12 1013.0 1011.8 0.0
05/08:30am 28.1 30.1 22.3 70 3.9 ENE 15 24 8 13 1012.5 1011.3 0.0
05/08:00am 27.2 29.8 22.6 76 3.1 E 13 17 7 9 1012.5 1011.3 0.0
05/07:51am 27.1 29.7 22.7 77 3.0 E 13 17 7 9 1012.5 1011.3 0.0
05/07:37am 26.6 29.3 22.9 80 2.5 ENE 13 17 7 9 1012.2 1011.0 0.0
05/07:35am 26.5 29.4 23.2 82 2.3 ENE 13 19 7 10 1012.1 1010.9 0.0
05/07:30am 26.2 28.6 22.9 82 2.3 ENE 15 19 8 10 1012.1 1010.9 0.0
05/07:15am 26.0 29.1 22.9 83 2.1 ENE 11 15 6 8 1012.0 1010.8 0.0
05/07:00am 25.8 29.2 23.3 86 1.7 E 11 15 6 8 1011.8 1010.6 0.0
05/06:30am 25.1 28.9 23.5 91 1.1 ESE 9 13 5 7 1011.4 1010.1 0.0
05/06:00am 24.1 28.6 23.9 99 0.1 SSE 7 9 4 5 1011.2 1009.9 0.0
05/05:30am 23.3 27.4 23.3 100 0.0 SE 7 9 4 5 1010.7 1009.4 0.0
05/05:00am 22.9 26.6 22.6 98 0.2 SE 7 9 4 5 1010.4 1009.1 0.0
05/04:30am 23.1 26.3 22.4 96 0.5 SE 9 9 5 5 1010.2 1008.9 0.0
05/04:00am 23.1 25.7 21.2 89 1.3 SE 9 13 5 7 1010.0 1008.7 0.0
05/03:30am 23.0 27.2 21.8 93 0.8 ESE 2 11 1 6 1009.7 1008.4 0.0
05/03:00am 23.5 28.0 21.6 89 1.3 CALM 0 0 0 0 1009.6 1008.3 0.0
05/02:30am 24.2 28.5 21.1 83 2.1 CALM 0 0 0 0 1009.4 1008.1 0.0
05/02:00am 24.4 28.5 20.7 80 2.4 CALM 0 6 0 3 1009.3 1008.0 0.0
05/01:30am 23.8 26.7 21.1 85 1.8 ESE 7 13 4 7 1009.8 1008.5 0.0
05/01:00am 24.6 26.6 19.9 75 3.1 SW 9 13 5 7 1009.9 1008.6 0.0
05/12:30am 25.0 27.6 20.5 76 3.0 SW 7 11 4 6 1010.0 1008.7 0.0
05/12:00am 25.4 27.5 20.2 73 3.4 WSW 9 11 5 6 1010.3 1009.0 0.0
 
Date/Time
EST
Temp
°C
App
Temp
°C
Dew
Point
°C
Rel
Hum
%
Delta-T
°C
Wind Press
QNH
hPa
Press
MSL
hPa
Rain since
9am
mm
Dir  Spd
km/h
Gust
km/h
Spd
kts
Gust
kts
04/11:30pm 25.4 27.3 19.8 71 3.6 WSW 9 11 5 6 1010.5 1009.2 0.0
04/11:00pm 26.1 28.3 20.4 71 3.8 WSW 9 11 5 6 1010.7 1009.4 0.0
04/10:30pm 26.2 28.6 20.8 72 3.6 SSE 9 11 5 6 1010.8 1009.5 0.0
04/10:00pm 28.0 30.3 19.8 61 5.4 W 7 11 4 6 1011.0 1009.7 0.0
04/09:30pm 28.4 30.2 19.6 59 5.8 SW 9 13 5 7 1010.7 1009.4 0.0
04/09:00pm 29.3 34.0 22.0 64 5.0 CALM 0 7 0 4 1010.0 1008.7 0.0
04/08:30pm 29.2 31.8 21.9 64 5.0 S 11 13 6 7 1010.0 1008.7 0.0
04/08:00pm 29.8 31.1 20.9 59 6.0 ESE 15 24 8 13 1009.8 1008.5 0.0
04/07:30pm 30.6 32.7 21.7 59 6.0 ENE 13 19 7 10 1009.5 1008.2 0.0
04/07:00pm 30.1 32.6 21.7 60 5.7 ESE 11 13 6 7 1008.9 1007.6 0.0
04/06:30pm 31.8 33.0 19.8 49 8.0 SE 13 15 7 8 1008.5 1007.3 0.0
04/06:00pm 32.7 34.2 20.6 49 8.2 ESE 13 15 7 8 1008.3 1007.1 0.0
04/05:30pm 34.1 34.5 19.0 41 10.0 ESE 15 20 8 11 1007.9 1006.7 0.0
04/05:00pm 34.5 35.8 19.3 40 10.1 ESE 11 22 6 12 1007.8 1006.6 0.0
04/04:30pm 34.3 35.8 18.8 40 10.2 SSW 9 17 5 9 1007.9 1006.7 0.0
04/04:00pm 34.2 36.6 18.7 40 10.2 ESE 4 9 2 5 1008.4 1007.2 0.0
04/03:30pm 34.0 36.9 20.7 45 9.0 NE 6 11 3 6 1008.7 1007.4 0.0
04/03:00pm 33.6 35.1 19.7 44 9.3 ESE 11 19 6 10 1009.2 1007.9 0.0
04/02:30pm 33.7 37.3 22.1 50 8.0 NE 6 11 3 6 1009.6 1008.3 0.0
04/02:00pm 33.4 36.9 21.9 51 7.9 NE 6 13 3 7 1010.0 1008.7 0.0
04/01:30pm 32.7 35.0 19.9 46 8.5 SE 7 13 4 7 1010.7 1009.4 0.0
04/01:00pm 32.3 34.1 19.5 46 8.5 ESE 9 17 5 9 1011.1 1009.8 0.0
04/12:30pm 32.3 34.8 20.2 48 8.1 SE 7 13 4 7 1011.5 1010.2 0.0
04/12:00pm 31.3 33.7 20.9 54 7.0 E 9 15 5 8 1011.9 1010.7 0.0
04/11:30am 30.9 34.0 21.4 57 6.4 NNE 7 13 4 7 1012.4 1011.2 0.0
04/11:00am 30.1 33.0 21.7 60 5.7 NNE 9 13 5 7 1013.0 1011.8 0.0
04/10:30am 30.0 33.9 21.9 62 5.5 E 4 9 2 5 1013.5 1012.3 0.0

Other formats

Comma delimited format used in spreadsheet applications
http://www.bom.gov.au/fwo/IDQ60801/IDQ60801.94363.axf

JavaScript Object Notation format (JSON) in row-major order
http://www.bom.gov.au/fwo/IDQ60801/IDQ60801.94363.json

Data quality

Most of these data are generated automatically and are frequently updated. Quality checks on data are not normally performed. It is possible for incorrect values to appear. Refer to information at About Latest Weather Observations and please check the disclaimer before using these data.